sensor_id;sensor_type;location;lat;lon;timestamp;P1;durP1;ratioP1;P2;durP2;ratioP2
11082;SDS011;5595;50.186;8.468;2023-04-21T00:01:52;0.10;;;0.10;;
11082;SDS011;5595;50.186;8.468;2023-04-21T00:04:19;0.00;;;0.00;;
11082;SDS011;5595;50.186;8.468;2023-04-21T00:06:46;0.03;;;0.03;;
11082;SDS011;5595;50.186;8.468;2023-04-21T00:09:14;0.00;;;0.00;;
11082;SDS011;5595;50.186;8.468;2023-04-21T00:11:42;0.00;;;0.00;;
11082;SDS011;5595;50.186;8.468;2023-04-21T00:14:09;0.00;;;0.00;;
11082;SDS011;5595;50.186;8.468;2023-04-21T00:16:36;0.93;;;0.20;;
11082;SDS011;5595;50.186;8.468;2023-04-21T00:19:04;0.20;;;0.20;;
11082;SDS011;5595;50.186;8.468;2023-04-21T00:21:31;0.20;;;0.20;;
11082;SDS011;5595;50.186;8.468;2023-04-21T00:23:58;0.10;;;0.00;;
11082;SDS011;5595;50.186;8.468;2023-04-21T00:26:25;0.00;;;0.00;;
11082;SDS011;5595;50.186;8.468;2023-04-21T00:28:52;0.03;;;0.03;;
11082;SDS011;5595;50.186;8.468;2023-04-21T00:31:18;0.20;;;0.07;;
11082;SDS011;5595;50.186;8.468;2023-04-21T00:33:45;0.00;;;0.00;;
11082;SDS011;5595;50.186;8.468;2023-04-21T00:36:14;0.10;;;0.10;;
11082;SDS011;5595;50.186;8.468;2023-04-21T00:38:40;0.20;;;0.20;;
11082;SDS011;5595;50.186;8.468;2023-04-21T00:41:07;0.20;;;0.20;;
11082;SDS011;5595;50.186;8.468;2023-04-21T00:43:34;0.30;;;0.10;;
11082;SDS011;5595;50.186;8.468;2023-04-21T00:46:01;0.20;;;0.10;;
11082;SDS011;5595;50.186;8.468;2023-04-21T00:48:28;0.00;;;0.00;;
11082;SDS011;5595;50.186;8.468;2023-04-21T00:50:55;0.27;;;0.10;;
11082;SDS011;5595;50.186;8.468;2023-04-21T00:53:23;0.53;;;0.13;;
11082;SDS011;5595;50.186;8.468;2023-04-21T00:55:50;0.57;;;0.23;;
11082;SDS011;5595;50.186;8.468;2023-04-21T00:58:17;0.43;;;0.20;;
11082;SDS011;5595;50.186;8.468;2023-04-21T01:00:44;0.00;;;0.00;;
11082;SDS011;5595;50.186;8.468;2023-04-21T01:03:11;0.10;;;0.10;;
11082;SDS011;5595;50.186;8.468;2023-04-21T01:05:38;0.00;;;0.00;;
11082;SDS011;5595;50.186;8.468;2023-04-21T01:08:06;0.30;;;0.30;;
11082;SDS011;5595;50.186;8.468;2023-04-21T01:10:34;0.00;;;0.00;;
11082;SDS011;5595;50.186;8.468;2023-04-21T01:13:01;0.00;;;0.00;;
11082;SDS011;5595;50.186;8.468;2023-04-21T01:15:28;0.10;;;0.10;;
11082;SDS011;5595;50.186;8.468;2023-04-21T01:17:56;0.00;;;0.00;;
11082;SDS011;5595;50.186;8.468;2023-04-21T01:20:23;0.00;;;0.00;;
11082;SDS011;5595;50.186;8.468;2023-04-21T01:22:51;0.10;;;0.10;;
11082;SDS011;5595;50.186;8.468;2023-04-21T01:25:18;0.00;;;0.00;;
11082;SDS011;5595;50.186;8.468;2023-04-21T01:27:47;0.10;;;0.10;;
11082;SDS011;5595;50.186;8.468;2023-04-21T01:30:14;0.10;;;0.10;;
11082;SDS011;5595;50.186;8.468;2023-04-21T01:32:41;0.27;;;0.10;;
11082;SDS011;5595;50.186;8.468;2023-04-21T01:35:08;0.07;;;0.07;;
11082;SDS011;5595;50.186;8.468;2023-04-21T01:37:35;0.00;;;0.00;;
11082;SDS011;5595;50.186;8.468;2023-04-21T01:40:04;0.00;;;0.00;;
11082;SDS011;5595;50.186;8.468;2023-04-21T01:42:33;0.00;;;0.00;;
11082;SDS011;5595;50.186;8.468;2023-04-21T01:45:01;0.00;;;0.00;;
11082;SDS011;5595;50.186;8.468;2023-04-21T01:47:28;0.00;;;0.00;;
11082;SDS011;5595;50.186;8.468;2023-04-21T01:49:55;0.00;;;0.00;;
11082;SDS011;5595;50.186;8.468;2023-04-21T01:52:22;0.00;;;0.00;;
11082;SDS011;5595;50.186;8.468;2023-04-21T01:54:49;0.20;;;0.10;;
11082;SDS011;5595;50.186;8.468;2023-04-21T01:57:17;0.00;;;0.00;;
11082;SDS011;5595;50.186;8.468;2023-04-21T01:59:44;0.30;;;0.10;;
11082;SDS011;5595;50.186;8.468;2023-04-21T02:02:12;0.00;;;0.00;;
11082;SDS011;5595;50.186;8.468;2023-04-21T02:04:39;0.00;;;0.00;;
11082;SDS011;5595;50.186;8.468;2023-04-21T02:07:05;0.10;;;0.10;;
11082;SDS011;5595;50.186;8.468;2023-04-21T02:09:32;0.80;;;0.40;;
11082;SDS011;5595;50.186;8.468;2023-04-21T02:11:59;0.00;;;0.00;;
11082;SDS011;5595;50.186;8.468;2023-04-21T02:14:29;0.00;;;0.00;;
11082;SDS011;5595;50.186;8.468;2023-04-21T02:16:56;0.00;;;0.00;;
11082;SDS011;5595;50.186;8.468;2023-04-21T02:19:22;0.10;;;0.10;;
11082;SDS011;5595;50.186;8.468;2023-04-21T02:21:49;0.00;;;0.00;;
11082;SDS011;5595;50.186;8.468;2023-04-21T02:24:19;0.00;;;0.00;;
11082;SDS011;5595;50.186;8.468;2023-04-21T02:26:46;0.00;;;0.00;;
11082;SDS011;5595;50.186;8.468;2023-04-21T02:29:13;0.00;;;0.00;;
11082;SDS011;5595;50.186;8.468;2023-04-21T02:31:42;0.00;;;0.00;;
11082;SDS011;5595;50.186;8.468;2023-04-21T02:34:08;0.00;;;0.00;;
11082;SDS011;5595;50.186;8.468;2023-04-21T02:36:35;0.10;;;0.10;;
11082;SDS011;5595;50.186;8.468;2023-04-21T02:39:02;0.00;;;0.00;;
11082;SDS011;5595;50.186;8.468;2023-04-21T02:41:29;0.10;;;0.10;;
11082;SDS011;5595;50.186;8.468;2023-04-21T02:43:56;0.07;;;0.07;;
11082;SDS011;5595;50.186;8.468;2023-04-21T02:46:23;0.23;;;0.23;;
11082;SDS011;5595;50.186;8.468;2023-04-21T02:48:51;0.40;;;0.20;;
11082;SDS011;5595;50.186;8.468;2023-04-21T02:51:18;1.03;;;0.17;;
11082;SDS011;5595;50.186;8.468;2023-04-21T02:53:45;0.00;;;0.00;;
11082;SDS011;5595;50.186;8.468;2023-04-21T02:56:12;0.10;;;0.10;;
11082;SDS011;5595;50.186;8.468;2023-04-21T02:58:38;0.30;;;0.10;;
11082;SDS011;5595;50.186;8.468;2023-04-21T03:01:05;0.00;;;0.00;;
11082;SDS011;5595;50.186;8.468;2023-04-21T03:03:32;0.00;;;0.00;;
11082;SDS011;5595;50.186;8.468;2023-04-21T03:06:02;0.00;;;0.00;;
11082;SDS011;5595;50.186;8.468;2023-04-21T03:08:30;0.00;;;0.00;;
11082;SDS011;5595;50.186;8.468;2023-04-21T03:10:57;0.00;;;0.00;;
11082;SDS011;5595;50.186;8.468;2023-04-21T03:13:24;0.10;;;0.10;;
11082;SDS011;5595;50.186;8.468;2023-04-21T03:15:51;3.00;;;0.50;;
11082;SDS011;5595;50.186;8.468;2023-04-21T03:18:18;0.00;;;0.00;;
11082;SDS011;5595;50.186;8.468;2023-04-21T03:20:44;0.00;;;0.00;;
11082;SDS011;5595;50.186;8.468;2023-04-21T03:23:13;0.00;;;0.00;;
11082;SDS011;5595;50.186;8.468;2023-04-21T03:25:41;0.00;;;0.00;;
11082;SDS011;5595;50.186;8.468;2023-04-21T03:28:08;0.00;;;0.00;;
11082;SDS011;5595;50.186;8.468;2023-04-21T03:30:35;0.00;;;0.00;;
11082;SDS011;5595;50.186;8.468;2023-04-21T03:33:02;0.27;;;0.00;;
11082;SDS011;5595;50.186;8.468;2023-04-21T03:35:29;0.30;;;0.20;;
11082;SDS011;5595;50.186;8.468;2023-04-21T03:37:56;0.00;;;0.00;;
11082;SDS011;5595;50.186;8.468;2023-04-21T03:40:24;0.33;;;0.20;;
11082;SDS011;5595;50.186;8.468;2023-04-21T03:42:51;0.00;;;0.00;;
11082;SDS011;5595;50.186;8.468;2023-04-21T03:45:18;0.00;;;0.00;;
11082;SDS011;5595;50.186;8.468;2023-04-21T03:47:46;0.00;;;0.00;;
11082;SDS011;5595;50.186;8.468;2023-04-21T03:50:13;0.00;;;0.00;;
11082;SDS011;5595;50.186;8.468;2023-04-21T03:52:40;1.00;;;0.23;;
11082;SDS011;5595;50.186;8.468;2023-04-21T03:55:07;0.17;;;0.17;;
11082;SDS011;5595;50.186;8.468;2023-04-21T03:57:37;0.00;;;0.00;;
11082;SDS011;5595;50.186;8.468;2023-04-21T04:00:05;0.23;;;0.23;;
11082;SDS011;5595;50.186;8.468;2023-04-21T04:02:34;0.33;;;0.23;;
11082;SDS011;5595;50.186;8.468;2023-04-21T04:05:01;0.00;;;0.00;;
11082;SDS011;5595;50.186;8.468;2023-04-21T04:07:29;0.00;;;0.00;;
11082;SDS011;5595;50.186;8.468;2023-04-21T04:09:58;0.03;;;0.00;;
11082;SDS011;5595;50.186;8.468;2023-04-21T04:12:25;0.00;;;0.00;;
11082;SDS011;5595;50.186;8.468;2023-04-21T04:14:53;0.03;;;0.00;;
11082;SDS011;5595;50.186;8.468;2023-04-21T04:17:20;0.17;;;0.10;;
11082;SDS011;5595;50.186;8.468;2023-04-21T04:19:47;0.00;;;0.00;;
11082;SDS011;5595;50.186;8.468;2023-04-21T04:22:14;0.00;;;0.00;;
11082;SDS011;5595;50.186;8.468;2023-04-21T04:24:41;0.00;;;0.00;;
11082;SDS011;5595;50.186;8.468;2023-04-21T04:27:09;0.00;;;0.00;;
11082;SDS011;5595;50.186;8.468;2023-04-21T04:29:38;0.00;;;0.00;;
11082;SDS011;5595;50.186;8.468;2023-04-21T04:32:06;0.03;;;0.03;;
11082;SDS011;5595;50.186;8.468;2023-04-21T04:34:34;0.00;;;0.00;;
11082;SDS011;5595;50.186;8.468;2023-04-21T04:37:02;0.00;;;0.00;;
11082;SDS011;5595;50.186;8.468;2023-04-21T04:39:30;0.20;;;0.20;;
11082;SDS011;5595;50.186;8.468;2023-04-21T04:41:57;0.57;;;0.20;;
11082;SDS011;5595;50.186;8.468;2023-04-21T04:44:25;0.10;;;0.00;;
11082;SDS011;5595;50.186;8.468;2023-04-21T04:46:52;0.13;;;0.13;;
11082;SDS011;5595;50.186;8.468;2023-04-21T04:49:20;0.00;;;0.00;;
11082;SDS011;5595;50.186;8.468;2023-04-21T04:51:47;0.47;;;0.30;;
11082;SDS011;5595;50.186;8.468;2023-04-21T04:54:14;0.00;;;0.00;;
11082;SDS011;5595;50.186;8.468;2023-04-21T04:56:40;0.00;;;0.00;;
11082;SDS011;5595;50.186;8.468;2023-04-21T04:59:07;0.20;;;0.20;;
11082;SDS011;5595;50.186;8.468;2023-04-21T05:01:34;0.00;;;0.00;;
11082;SDS011;5595;50.186;8.468;2023-04-21T05:04:03;0.00;;;0.00;;
11082;SDS011;5595;50.186;8.468;2023-04-21T05:06:31;0.00;;;0.00;;
11082;SDS011;5595;50.186;8.468;2023-04-21T05:08:58;0.00;;;0.00;;
11082;SDS011;5595;50.186;8.468;2023-04-21T05:11:25;0.00;;;0.00;;
11082;SDS011;5595;50.186;8.468;2023-04-21T05:13:52;0.37;;;0.03;;
11082;SDS011;5595;50.186;8.468;2023-04-21T05:16:18;0.00;;;0.00;;
11082;SDS011;5595;50.186;8.468;2023-04-21T05:18:45;0.00;;;0.00;;
11082;SDS011;5595;50.186;8.468;2023-04-21T05:21:20;0.13;;;0.13;;
11082;SDS011;5595;50.186;8.468;2023-04-21T05:23:50;0.17;;;0.00;;
11082;SDS011;5595;50.186;8.468;2023-04-21T05:26:17;0.20;;;0.20;;
11082;SDS011;5595;50.186;8.468;2023-04-21T05:28:43;0.10;;;0.00;;
11082;SDS011;5595;50.186;8.468;2023-04-21T05:31:10;0.00;;;0.00;;
11082;SDS011;5595;50.186;8.468;2023-04-21T05:33:37;0.00;;;0.00;;
11082;SDS011;5595;50.186;8.468;2023-04-21T05:36:05;0.00;;;0.00;;
11082;SDS011;5595;50.186;8.468;2023-04-21T05:38:33;0.00;;;0.00;;
11082;SDS011;5595;50.186;8.468;2023-04-21T05:41:01;0.00;;;0.00;;
11082;SDS011;5595;50.186;8.468;2023-04-21T05:43:28;0.00;;;0.00;;
11082;SDS011;5595;50.186;8.468;2023-04-21T05:45:57;0.33;;;0.00;;
11082;SDS011;5595;50.186;8.468;2023-04-21T05:48:24;0.00;;;0.00;;
11082;SDS011;5595;50.186;8.468;2023-04-21T05:50:51;0.27;;;0.07;;
11082;SDS011;5595;50.186;8.468;2023-04-21T05:53:21;0.00;;;0.00;;
11082;SDS011;5595;50.186;8.468;2023-04-21T05:55:48;0.00;;;0.00;;
11082;SDS011;5595;50.186;8.468;2023-04-21T05:58:17;0.00;;;0.00;;
11082;SDS011;5595;50.186;8.468;2023-04-21T06:00:44;0.10;;;0.10;;
11082;SDS011;5595;50.186;8.468;2023-04-21T06:03:11;0.37;;;0.37;;
11082;SDS011;5595;50.186;8.468;2023-04-21T06:05:38;0.00;;;0.00;;
11082;SDS011;5595;50.186;8.468;2023-04-21T06:10:47;0.00;;;0.00;;
11082;SDS011;5595;50.186;8.468;2023-04-21T06:13:14;0.00;;;0.00;;
11082;SDS011;5595;50.186;8.468;2023-04-21T06:15:42;0.10;;;0.10;;
11082;SDS011;5595;50.186;8.468;2023-04-21T06:18:09;0.00;;;0.00;;
11082;SDS011;5595;50.186;8.468;2023-04-21T06:20:36;0.33;;;0.27;;
11082;SDS011;5595;50.186;8.468;2023-04-21T06:29:36;0.00;;;0.00;;
11082;SDS011;5595;50.186;8.468;2023-04-21T06:32:03;0.00;;;0.00;;
11082;SDS011;5595;50.186;8.468;2023-04-21T06:34:30;0.30;;;0.30;;
11082;SDS011;5595;50.186;8.468;2023-04-21T06:36:57;0.10;;;0.10;;
11082;SDS011;5595;50.186;8.468;2023-04-21T06:39:24;0.10;;;0.10;;
11082;SDS011;5595;50.186;8.468;2023-04-21T06:41:50;0.00;;;0.00;;
11082;SDS011;5595;50.186;8.468;2023-04-21T06:44:17;0.20;;;0.20;;
11082;SDS011;5595;50.186;8.468;2023-04-21T06:46:46;0.50;;;0.50;;
11082;SDS011;5595;50.186;8.468;2023-04-21T06:49:13;0.63;;;0.63;;
11082;SDS011;5595;50.186;8.468;2023-04-21T06:51:39;0.83;;;0.23;;
11082;SDS011;5595;50.186;8.468;2023-04-21T06:54:06;0.20;;;0.20;;
11082;SDS011;5595;50.186;8.468;2023-04-21T06:56:33;0.00;;;0.00;;
11082;SDS011;5595;50.186;8.468;2023-04-21T06:59:00;0.20;;;0.20;;
11082;SDS011;5595;50.186;8.468;2023-04-21T07:01:27;0.27;;;0.23;;
11082;SDS011;5595;50.186;8.468;2023-04-21T07:03:55;0.53;;;0.37;;
11082;SDS011;5595;50.186;8.468;2023-04-21T07:06:22;0.20;;;0.20;;
11082;SDS011;5595;50.186;8.468;2023-04-21T07:08:49;0.40;;;0.03;;
11082;SDS011;5595;50.186;8.468;2023-04-21T07:11:15;0.97;;;0.60;;
11082;SDS011;5595;50.186;8.468;2023-04-21T07:13:43;0.07;;;0.07;;
11082;SDS011;5595;50.186;8.468;2023-04-21T07:16:10;0.17;;;0.17;;
11082;SDS011;5595;50.186;8.468;2023-04-21T07:18:38;0.20;;;0.20;;
11082;SDS011;5595;50.186;8.468;2023-04-21T07:21:07;0.10;;;0.10;;
11082;SDS011;5595;50.186;8.468;2023-04-21T07:23:34;0.47;;;0.20;;
11082;SDS011;5595;50.186;8.468;2023-04-21T07:26:01;1.15;;;0.77;;
11082;SDS011;5595;50.186;8.468;2023-04-21T07:28:28;0.13;;;0.00;;
11082;SDS011;5595;50.186;8.468;2023-04-21T07:30:55;3.42;;;0.30;;
11082;SDS011;5595;50.186;8.468;2023-04-21T07:33:21;0.17;;;0.17;;
11082;SDS011;5595;50.186;8.468;2023-04-21T07:35:48;0.30;;;0.30;;
11082;SDS011;5595;50.186;8.468;2023-04-21T07:38:17;4.85;;;0.10;;
11082;SDS011;5595;50.186;8.468;2023-04-21T07:40:44;0.00;;;0.00;;
11082;SDS011;5595;50.186;8.468;2023-04-21T07:43:11;0.38;;;0.25;;
11082;SDS011;5595;50.186;8.468;2023-04-21T07:45:40;0.88;;;0.10;;
11082;SDS011;5595;50.186;8.468;2023-04-21T07:48:07;0.47;;;0.35;;
11082;SDS011;5595;50.186;8.468;2023-04-21T07:50:34;0.57;;;0.10;;
11082;SDS011;5595;50.186;8.468;2023-04-21T07:53:01;3.95;;;0.50;;
11082;SDS011;5595;50.186;8.468;2023-04-21T07:55:30;0.10;;;0.10;;
11082;SDS011;5595;50.186;8.468;2023-04-21T07:57:58;0.30;;;0.15;;
11082;SDS011;5595;50.186;8.468;2023-04-21T08:00:25;0.52;;;0.52;;
11082;SDS011;5595;50.186;8.468;2023-04-21T08:02:52;0.52;;;0.30;;
11082;SDS011;5595;50.186;8.468;2023-04-21T08:05:19;2.72;;;0.25;;
11082;SDS011;5595;50.186;8.468;2023-04-21T08:07:46;1.55;;;0.55;;
11082;SDS011;5595;50.186;8.468;2023-04-21T08:10:12;0.98;;;0.55;;
11082;SDS011;5595;50.186;8.468;2023-04-21T08:12:41;0.10;;;0.10;;
11082;SDS011;5595;50.186;8.468;2023-04-21T08:15:09;1.65;;;0.68;;
11082;SDS011;5595;50.186;8.468;2023-04-21T08:17:36;1.25;;;0.20;;
11082;SDS011;5595;50.186;8.468;2023-04-21T08:20:04;0.28;;;0.13;;
11082;SDS011;5595;50.186;8.468;2023-04-21T08:22:31;0.80;;;0.30;;
11082;SDS011;5595;50.186;8.468;2023-04-21T08:25:00;0.65;;;0.52;;
11082;SDS011;5595;50.186;8.468;2023-04-21T08:27:27;0.52;;;0.30;;
11082;SDS011;5595;50.186;8.468;2023-04-21T08:29:55;0.47;;;0.40;;
11082;SDS011;5595;50.186;8.468;2023-04-21T08:32:22;0.30;;;0.30;;
11082;SDS011;5595;50.186;8.468;2023-04-21T08:34:50;1.27;;;0.28;;
11082;SDS011;5595;50.186;8.468;2023-04-21T08:37:17;0.63;;;0.57;;
11082;SDS011;5595;50.186;8.468;2023-04-21T08:39:45;0.85;;;0.63;;
11082;SDS011;5595;50.186;8.468;2023-04-21T08:42:12;1.98;;;0.73;;
11082;SDS011;5595;50.186;8.468;2023-04-21T08:44:40;0.22;;;0.22;;
11082;SDS011;5595;50.186;8.468;2023-04-21T08:47:09;0.20;;;0.15;;
11082;SDS011;5595;50.186;8.468;2023-04-21T08:49:37;2.25;;;0.52;;
11082;SDS011;5595;50.186;8.468;2023-04-21T08:52:04;0.40;;;0.40;;
11082;SDS011;5595;50.186;8.468;2023-04-21T08:54:32;1.10;;;0.75;;
11082;SDS011;5595;50.186;8.468;2023-04-21T08:57:00;2.83;;;0.57;;
11082;SDS011;5595;50.186;8.468;2023-04-21T08:59:28;1.60;;;0.50;;
11082;SDS011;5595;50.186;8.468;2023-04-21T09:02:09;1.48;;;0.95;;
11082;SDS011;5595;50.186;8.468;2023-04-21T09:04:37;0.77;;;0.52;;
11082;SDS011;5595;50.186;8.468;2023-04-21T09:07:05;2.35;;;0.77;;
11082;SDS011;5595;50.186;8.468;2023-04-21T09:09:33;1.27;;;0.80;;
11082;SDS011;5595;50.186;8.468;2023-04-21T09:12:16;1.42;;;0.80;;
11082;SDS011;5595;50.186;8.468;2023-04-21T09:14:43;1.35;;;0.35;;
11082;SDS011;5595;50.186;8.468;2023-04-21T09:17:14;0.30;;;0.30;;
11082;SDS011;5595;50.186;8.468;2023-04-21T09:19:42;2.63;;;0.40;;
11082;SDS011;5595;50.186;8.468;2023-04-21T09:22:09;1.67;;;0.70;;
11082;SDS011;5595;50.186;8.468;2023-04-21T09:24:43;2.22;;;0.77;;
11082;SDS011;5595;50.186;8.468;2023-04-21T09:27:12;1.23;;;0.52;;
11082;SDS011;5595;50.186;8.468;2023-04-21T09:29:44;1.90;;;0.82;;
11082;SDS011;5595;50.186;8.468;2023-04-21T09:32:16;0.50;;;0.50;;
11082;SDS011;5595;50.186;8.468;2023-04-21T09:34:43;0.93;;;0.52;;
11082;SDS011;5595;50.186;8.468;2023-04-21T09:37:11;1.48;;;1.10;;
11082;SDS011;5595;50.186;8.468;2023-04-21T09:39:39;0.52;;;0.52;;
11082;SDS011;5595;50.186;8.468;2023-04-21T09:42:10;2.28;;;0.38;;
11082;SDS011;5595;50.186;8.468;2023-04-21T09:44:37;1.58;;;0.70;;
11082;SDS011;5595;50.186;8.468;2023-04-21T09:47:04;0.70;;;0.50;;
11082;SDS011;5595;50.186;8.468;2023-04-21T09:49:38;0.77;;;0.52;;
11082;SDS011;5595;50.186;8.468;2023-04-21T09:52:09;1.20;;;0.38;;
11082;SDS011;5595;50.186;8.468;2023-04-21T09:54:39;0.75;;;0.50;;
11082;SDS011;5595;50.186;8.468;2023-04-21T09:57:13;0.95;;;0.75;;
11082;SDS011;5595;50.186;8.468;2023-04-21T09:59:45;0.20;;;0.20;;
11082;SDS011;5595;50.186;8.468;2023-04-21T10:02:16;0.93;;;0.50;;
11082;SDS011;5595;50.186;8.468;2023-04-21T10:04:46;1.20;;;0.57;;
11082;SDS011;5595;50.186;8.468;2023-04-21T10:07:12;1.60;;;0.25;;
11082;SDS011;5595;50.186;8.468;2023-04-21T10:09:41;1.67;;;0.82;;
11082;SDS011;5595;50.186;8.468;2023-04-21T10:12:11;1.77;;;0.38;;
11082;SDS011;5595;50.186;8.468;2023-04-21T10:14:39;1.88;;;0.88;;
11082;SDS011;5595;50.186;8.468;2023-04-21T10:17:06;1.30;;;0.60;;
11082;SDS011;5595;50.186;8.468;2023-04-21T10:19:34;2.33;;;0.28;;
11082;SDS011;5595;50.186;8.468;2023-04-21T10:22:06;0.65;;;0.50;;
11082;SDS011;5595;50.186;8.468;2023-04-21T10:24:35;0.98;;;0.20;;
11082;SDS011;5595;50.186;8.468;2023-04-21T10:27:03;0.75;;;0.22;;
11082;SDS011;5595;50.186;8.468;2023-04-21T10:29:31;1.70;;;0.70;;
11082;SDS011;5595;50.186;8.468;2023-04-21T10:31:59;0.85;;;0.43;;
11082;SDS011;5595;50.186;8.468;2023-04-21T10:34:33;1.90;;;0.50;;
11082;SDS011;5595;50.186;8.468;2023-04-21T10:37:09;0.43;;;0.43;;
11082;SDS011;5595;50.186;8.468;2023-04-21T10:42:34;1.70;;;0.52;;
11082;SDS011;5595;50.186;8.468;2023-04-21T10:45:09;5.05;;;0.90;;
11082;SDS011;5595;50.186;8.468;2023-04-21T10:47:37;0.93;;;0.52;;
11082;SDS011;5595;50.186;8.468;2023-04-21T10:50:11;1.40;;;0.63;;
11082;SDS011;5595;50.186;8.468;2023-04-21T10:52:43;0.30;;;0.30;;
11082;SDS011;5595;50.186;8.468;2023-04-21T10:55:11;1.45;;;0.50;;
11082;SDS011;5595;50.186;8.468;2023-04-21T10:57:41;0.85;;;0.50;;
11082;SDS011;5595;50.186;8.468;2023-04-21T11:00:13;1.02;;;0.90;;
11082;SDS011;5595;50.186;8.468;2023-04-21T11:02:41;0.25;;;0.25;;
11082;SDS011;5595;50.186;8.468;2023-04-21T11:05:08;0.65;;;0.63;;
11082;SDS011;5595;50.186;8.468;2023-04-21T11:07:36;9.65;;;0.82;;
11082;SDS011;5595;50.186;8.468;2023-04-21T11:10:04;0.93;;;0.52;;
11082;SDS011;5595;50.186;8.468;2023-04-21T11:12:33;1.02;;;0.85;;
11082;SDS011;5595;50.186;8.468;2023-04-21T11:15:02;0.75;;;0.50;;
11082;SDS011;5595;50.186;8.468;2023-04-21T11:17:32;0.20;;;0.20;;
11082;SDS011;5595;50.186;8.468;2023-04-21T11:20:01;0.47;;;0.40;;
11082;SDS011;5595;50.186;8.468;2023-04-21T11:22:30;0.47;;;0.40;;
11082;SDS011;5595;50.186;8.468;2023-04-21T11:24:58;0.77;;;0.52;;
11082;SDS011;5595;50.186;8.468;2023-04-21T11:27:27;0.63;;;0.28;;
11082;SDS011;5595;50.186;8.468;2023-04-21T11:29:54;0.25;;;0.25;;
11082;SDS011;5595;50.186;8.468;2023-04-21T11:32:22;0.50;;;0.50;;
11082;SDS011;5595;50.186;8.468;2023-04-21T11:34:49;1.30;;;0.68;;
11082;SDS011;5595;50.186;8.468;2023-04-21T11:37:21;1.45;;;0.50;;
11082;SDS011;5595;50.186;8.468;2023-04-21T11:39:55;0.50;;;0.28;;
11082;SDS011;5595;50.186;8.468;2023-04-21T11:42:22;0.93;;;0.60;;
11082;SDS011;5595;50.186;8.468;2023-04-21T11:44:52;1.60;;;0.82;;
11082;SDS011;5595;50.186;8.468;2023-04-21T11:47:21;1.08;;;0.60;;
11082;SDS011;5595;50.186;8.468;2023-04-21T11:49:50;0.20;;;0.20;;
11082;SDS011;5595;50.186;8.468;2023-04-21T11:52:19;1.17;;;0.65;;
11082;SDS011;5595;50.186;8.468;2023-04-21T11:54:47;0.77;;;0.50;;
11082;SDS011;5595;50.186;8.468;2023-04-21T11:57:17;0.70;;;0.40;;
11082;SDS011;5595;50.186;8.468;2023-04-21T11:59:44;0.88;;;0.50;;
11082;SDS011;5595;50.186;8.468;2023-04-21T12:02:16;0.77;;;0.55;;
11082;SDS011;5595;50.186;8.468;2023-04-21T12:04:55;1.25;;;0.65;;
11082;SDS011;5595;50.186;8.468;2023-04-21T12:07:28;2.83;;;1.00;;
11082;SDS011;5595;50.186;8.468;2023-04-21T12:09:55;0.70;;;0.70;;
11082;SDS011;5595;50.186;8.468;2023-04-21T12:12:22;1.00;;;0.80;;
11082;SDS011;5595;50.186;8.468;2023-04-21T12:14:50;0.73;;;0.60;;
11082;SDS011;5595;50.186;8.468;2023-04-21T12:17:19;0.60;;;0.60;;
11082;SDS011;5595;50.186;8.468;2023-04-21T12:19:46;0.63;;;0.60;;
11082;SDS011;5595;50.186;8.468;2023-04-21T12:22:14;1.23;;;0.50;;
11082;SDS011;5595;50.186;8.468;2023-04-21T12:24:42;0.43;;;0.43;;
11082;SDS011;5595;50.186;8.468;2023-04-21T12:27:10;1.08;;;0.77;;
11082;SDS011;5595;50.186;8.468;2023-04-21T12:29:37;0.55;;;0.55;;
11082;SDS011;5595;50.186;8.468;2023-04-21T12:32:04;0.32;;;0.32;;
11082;SDS011;5595;50.186;8.468;2023-04-21T12:34:33;1.27;;;0.73;;
11082;SDS011;5595;50.186;8.468;2023-04-21T12:37:01;0.45;;;0.45;;
11082;SDS011;5595;50.186;8.468;2023-04-21T12:39:28;1.75;;;0.57;;
11082;SDS011;5595;50.186;8.468;2023-04-21T12:41:55;1.75;;;0.73;;
11082;SDS011;5595;50.186;8.468;2023-04-21T12:44:22;0.55;;;0.55;;
11082;SDS011;5595;50.186;8.468;2023-04-21T12:46:49;0.38;;;0.38;;
11082;SDS011;5595;50.186;8.468;2023-04-21T12:49:16;0.50;;;0.45;;
11082;SDS011;5595;50.186;8.468;2023-04-21T12:51:45;0.85;;;0.47;;
11082;SDS011;5595;50.186;8.468;2023-04-21T12:54:12;1.10;;;0.70;;
11082;SDS011;5595;50.186;8.468;2023-04-21T12:56:39;0.77;;;0.57;;
11082;SDS011;5595;50.186;8.468;2023-04-21T12:59:07;2.50;;;0.22;;
11082;SDS011;5595;50.186;8.468;2023-04-21T13:01:35;0.98;;;0.80;;
11082;SDS011;5595;50.186;8.468;2023-04-21T13:04:02;0.73;;;0.43;;
11082;SDS011;5595;50.186;8.468;2023-04-21T13:06:30;0.75;;;0.40;;
11082;SDS011;5595;50.186;8.468;2023-04-21T13:08:59;0.45;;;0.43;;
11082;SDS011;5595;50.186;8.468;2023-04-21T13:11:27;0.20;;;0.20;;
11082;SDS011;5595;50.186;8.468;2023-04-21T13:13:54;1.05;;;0.32;;
11082;SDS011;5595;50.186;8.468;2023-04-21T13:16:21;2.85;;;0.35;;
11082;SDS011;5595;50.186;8.468;2023-04-21T13:18:48;0.68;;;0.55;;
11082;SDS011;5595;50.186;8.468;2023-04-21T13:21:15;0.30;;;0.30;;
11082;SDS011;5595;50.186;8.468;2023-04-21T13:23:42;1.70;;;0.40;;
11082;SDS011;5595;50.186;8.468;2023-04-21T13:26:10;1.30;;;0.70;;
11082;SDS011;5595;50.186;8.468;2023-04-21T13:28:37;1.58;;;0.55;;
11082;SDS011;5595;50.186;8.468;2023-04-21T13:31:06;0.65;;;0.65;;
11082;SDS011;5595;50.186;8.468;2023-04-21T13:33:33;0.30;;;0.30;;
11082;SDS011;5595;50.186;8.468;2023-04-21T13:36:00;0.88;;;0.75;;
11082;SDS011;5595;50.186;8.468;2023-04-21T13:38:32;1.20;;;0.28;;
11082;SDS011;5595;50.186;8.468;2023-04-21T13:40:59;0.28;;;0.28;;
11082;SDS011;5595;50.186;8.468;2023-04-21T13:43:28;0.28;;;0.28;;
11082;SDS011;5595;50.186;8.468;2023-04-21T13:45:56;0.82;;;0.43;;
11082;SDS011;5595;50.186;8.468;2023-04-21T13:48:23;2.47;;;0.47;;
11082;SDS011;5595;50.186;8.468;2023-04-21T13:50:50;0.75;;;0.40;;
11082;SDS011;5595;50.186;8.468;2023-04-21T13:53:17;1.08;;;0.98;;
11082;SDS011;5595;50.186;8.468;2023-04-21T13:55:45;0.93;;;0.68;;
11082;SDS011;5595;50.186;8.468;2023-04-21T13:58:13;0.35;;;0.28;;
11082;SDS011;5595;50.186;8.468;2023-04-21T14:00:42;1.83;;;0.43;;
11082;SDS011;5595;50.186;8.468;2023-04-21T14:03:09;1.08;;;0.35;;
11082;SDS011;5595;50.186;8.468;2023-04-21T14:05:36;1.20;;;0.70;;
11082;SDS011;5595;50.186;8.468;2023-04-21T14:08:03;0.82;;;0.45;;
11082;SDS011;5595;50.186;8.468;2023-04-21T14:10:31;0.38;;;0.32;;
11082;SDS011;5595;50.186;8.468;2023-04-21T14:12:58;0.40;;;0.28;;
11082;SDS011;5595;50.186;8.468;2023-04-21T14:15:24;0.30;;;0.22;;
11082;SDS011;5595;50.186;8.468;2023-04-21T14:17:53;1.75;;;0.47;;
11082;SDS011;5595;50.186;8.468;2023-04-21T14:20:20;0.30;;;0.30;;
11082;SDS011;5595;50.186;8.468;2023-04-21T14:22:47;0.68;;;0.43;;
11082;SDS011;5595;50.186;8.468;2023-04-21T14:25:14;0.00;;;0.00;;
11082;SDS011;5595;50.186;8.468;2023-04-21T14:27:41;0.63;;;0.32;;
11082;SDS011;5595;50.186;8.468;2023-04-21T14:30:08;0.63;;;0.40;;
11082;SDS011;5595;50.186;8.468;2023-04-21T14:32:36;0.50;;;0.38;;
11082;SDS011;5595;50.186;8.468;2023-04-21T14:35:10;0.73;;;0.30;;
11082;SDS011;5595;50.186;8.468;2023-04-21T14:37:37;0.47;;;0.47;;
11082;SDS011;5595;50.186;8.468;2023-04-21T14:40:04;0.10;;;0.10;;
11082;SDS011;5595;50.186;8.468;2023-04-21T14:42:32;0.20;;;0.20;;
11082;SDS011;5595;50.186;8.468;2023-04-21T14:44:59;0.50;;;0.20;;
11082;SDS011;5595;50.186;8.468;2023-04-21T14:47:32;0.10;;;0.10;;
11082;SDS011;5595;50.186;8.468;2023-04-21T14:49:59;0.63;;;0.40;;
11082;SDS011;5595;50.186;8.468;2023-04-21T14:52:28;0.30;;;0.30;;
11082;SDS011;5595;50.186;8.468;2023-04-21T14:54:55;1.20;;;0.55;;
11082;SDS011;5595;50.186;8.468;2023-04-21T14:57:22;0.35;;;0.35;;
11082;SDS011;5595;50.186;8.468;2023-04-21T14:59:49;0.35;;;0.35;;
11082;SDS011;5595;50.186;8.468;2023-04-21T15:02:17;0.80;;;0.40;;
11082;SDS011;5595;50.186;8.468;2023-04-21T15:04:44;0.38;;;0.35;;
11082;SDS011;5595;50.186;8.468;2023-04-21T15:07:11;0.20;;;0.20;;
11082;SDS011;5595;50.186;8.468;2023-04-21T15:09:40;0.40;;;0.40;;
11082;SDS011;5595;50.186;8.468;2023-04-21T15:12:12;0.45;;;0.30;;
11082;SDS011;5595;50.186;8.468;2023-04-21T15:14:39;1.92;;;0.28;;
11082;SDS011;5595;50.186;8.468;2023-04-21T15:17:06;0.60;;;0.60;;